Time;durP1;ratioP1;P1;durP2;ratioP2;P2;SDS_P1;SDS_P2;PMS_P1;PMS_P2;Temp;Humidity;BMP_temperature;BMP_pressure;BME280_temperature;BME280_humidity;BME280_pressure;Samples;Min_cycle;Max_cycle;Signal;HPM_P1;HPM_P2
2021/05/19 00:00:48;;;;;;;4.60;2.15;;;9.30;99.90;;;;;;4954206;28;20501;-75
2021/05/19 00:03:14;;;;;;;10.68;5.70;;;9.20;99.90;;;;;;4939110;29;20043;-75
2021/05/19 00:05:40;;;;;;;6.88;2.65;;;9.20;99.90;;;;;;4937352;28;20032;-75
2021/05/19 00:08:07;;;;;;;2.33;0.60;;;9.20;99.90;;;;;;4940341;28;20624;-75
2021/05/19 00:10:34;;;;;;;2.15;0.50;;;9.20;99.90;;;;;;4941035;28;20039;-75
2021/05/19 00:13:00;;;;;;;2.90;0.68;;;9.10;99.90;;;;;;4943600;28;20039;-75
2021/05/19 00:15:26;;;;;;;1.58;0.60;;;9.10;99.90;;;;;;4936846;29;20079;-75
2021/05/19 00:17:52;;;;;;;2.90;0.60;;;9.10;99.90;;;;;;4942217;28;20047;-75
2021/05/19 00:20:19;;;;;;;5.38;0.90;;;9.10;99.90;;;;;;4933919;29;20063;-75
2021/05/19 00:22:45;;;;;;;6.18;0.77;;;9.10;99.90;;;;;;4942875;29;20046;-75
2021/05/19 00:25:11;;;;;;;3.63;0.70;;;9.10;99.90;;;;;;4945831;28;20035;-75
2021/05/19 00:27:37;;;;;;;3.47;0.60;;;9.00;99.90;;;;;;4945783;28;20589;-75
2021/05/19 00:30:05;;;;;;;1.85;0.57;;;8.90;99.90;;;;;;4936805;28;20089;-75
2021/05/19 00:32:30;;;;;;;1.80;0.60;;;8.80;99.90;;;;;;4939542;29;20063;-75
2021/05/19 00:34:56;;;;;;;4.00;0.65;;;8.80;99.90;;;;;;4939386;28;20609;-75
2021/05/19 00:37:22;;;;;;;4.78;1.38;;;8.80;99.90;;;;;;4941524;28;20059;-75
2021/05/19 00:39:47;;;;;;;7.45;1.75;;;8.80;99.90;;;;;;4944962;28;20039;-75
2021/05/19 00:42:16;;;;;;;7.88;2.28;;;8.80;99.90;;;;;;4937646;29;20393;-75
2021/05/19 00:44:42;;;;;;;7.75;2.47;;;8.80;99.90;;;;;;4939470;29;20039;-76
2021/05/19 00:47:08;;;;;;;5.10;1.60;;;8.90;99.90;;;;;;4937427;28;20392;-75
2021/05/19 00:49:34;;;;;;;4.47;1.40;;;8.90;99.90;;;;;;4953805;28;20039;-75
2021/05/19 00:52:00;;;;;;;5.07;2.33;;;8.90;99.90;;;;;;4935878;28;20077;-75
2021/05/19 00:54:25;;;;;;;4.88;1.80;;;8.90;99.90;;;;;;4941555;28;20027;-75
2021/05/19 00:56:51;;;;;;;5.78;2.10;;;9.00;99.90;;;;;;4935843;29;20043;-75
2021/05/19 00:59:18;;;;;;;4.88;2.15;;;8.90;99.90;;;;;;4956662;28;20078;-75
2021/05/19 01:01:44;;;;;;;6.22;3.05;;;8.90;99.90;;;;;;4936079;29;20492;-76
2021/05/19 01:04:10;;;;;;;7.88;4.00;;;8.90;99.90;;;;;;4941666;29;20541;-75
2021/05/19 01:11:59;;;;;;;3.13;1.40;;;8.90;99.90;;;;;;4947472;29;20370;-76
2021/05/19 01:14:25;;;;;;;3.65;1.17;;;8.80;99.90;;;;;;4944737;28;20031;-75
2021/05/19 01:16:50;;;;;;;2.67;0.60;;;8.80;99.90;;;;;;4939766;28;20625;-75
2021/05/19 01:19:20;;;;;;;5.38;1.95;;;8.70;99.90;;;;;;4937659;28;20370;-75
2021/05/19 01:21:50;;;;;;;3.67;1.33;;;8.70;99.90;;;;;;4939465;28;20035;-75
2021/05/19 01:24:16;;;;;;;4.25;1.48;;;8.70;99.90;;;;;;4948528;28;20062;-75
2021/05/19 01:26:42;;;;;;;3.10;1.08;;;8.70;99.90;;;;;;4951005;28;20544;-75
2021/05/19 01:29:07;;;;;;;3.60;1.15;;;8.60;99.90;;;;;;4936526;29;20035;-75
2021/05/19 01:31:34;;;;;;;3.13;1.00;;;8.70;99.90;;;;;;4941454;28;20029;-76
2021/05/19 01:34:00;;;;;;;2.35;0.80;;;8.70;99.90;;;;;;4937693;28;20409;-75
2021/05/19 01:36:25;;;;;;;4.57;0.90;;;8.80;99.90;;;;;;4936338;29;20035;-76
2021/05/19 01:38:51;;;;;;;3.70;0.60;;;8.80;99.90;;;;;;4943973;28;20039;-75
2021/05/19 01:41:17;;;;;;;2.70;0.95;;;8.80;99.90;;;;;;4933485;29;20558;-75
2021/05/19 01:43:43;;;;;;;3.83;0.55;;;8.70;99.90;;;;;;4935562;28;20051;-75
2021/05/19 01:46:10;;;;;;;2.83;0.60;;;8.70;99.90;;;;;;4936572;28;20496;-75
2021/05/19 01:48:36;;;;;;;1.48;0.57;;;8.70;99.90;;;;;;4939319;28;20035;-75
2021/05/19 01:51:04;;;;;;;4.63;0.70;;;8.60;99.90;;;;;;4936754;29;20043;-75
2021/05/19 01:53:32;;;;;;;3.55;0.90;;;8.50;99.90;;;;;;4939112;28;20044;-75
2021/05/19 01:55:59;;;;;;;3.45;1.13;;;8.60;99.90;;;;;;4935848;29;20123;-75
2021/05/19 01:58:26;;;;;;;3.53;1.20;;;8.60;99.90;;;;;;4940789;28;20046;-75
2021/05/19 02:00:52;;;;;;;5.63;1.77;;;8.60;99.90;;;;;;4940561;28;20040;-75
2021/05/19 02:03:19;;;;;;;4.00;1.65;;;8.60;99.90;;;;;;4936553;28;20520;-75
2021/05/19 02:05:45;;;;;;;3.55;1.88;;;8.70;99.90;;;;;;4950790;28;20055;-76
2021/05/19 02:08:11;;;;;;;4.65;2.28;;;8.60;99.90;;;;;;4936946;28;20067;-75
2021/05/19 02:10:37;;;;;;;5.18;2.80;;;8.50;99.90;;;;;;4936412;28;20456;-75
2021/05/19 02:13:05;;;;;;;6.88;2.40;;;8.50;99.90;;;;;;4937245;28;20038;-75
2021/05/19 02:15:32;;;;;;;7.75;2.35;;;8.50;99.90;;;;;;4934875;28;20039;-75
2021/05/19 02:18:01;;;;;;;4.35;2.00;;;8.50;99.90;;;;;;4937237;28;20624;-75
2021/05/19 02:20:28;;;;;;;3.90;1.88;;;8.50;99.90;;;;;;4934113;28;20086;-75
2021/05/19 02:22:54;;;;;;;3.33;1.50;;;8.50;99.90;;;;;;4943182;28;20039;-75
2021/05/19 02:25:21;;;;;;;3.88;1.65;;;8.40;99.90;;;;;;4961382;23;20138;-75
2021/05/19 02:27:49;;;;;;;3.08;0.93;;;8.50;99.90;;;;;;4970474;28;20038;-75
2021/05/19 02:30:17;;;;;;;1.50;0.80;;;8.40;99.90;;;;;;4956513;28;20039;-75
2021/05/19 02:32:43;;;;;;;2.40;0.85;;;8.40;99.90;;;;;;4969942;28;20440;-75
2021/05/19 02:35:09;;;;;;;4.32;1.23;;;8.30;99.90;;;;;;4956791;28;20127;-75
2021/05/19 02:37:36;;;;;;;4.18;1.58;;;8.30;99.90;;;;;;4966882;28;20066;-75
2021/05/19 02:40:07;;;;;;;10.88;4.80;;;8.40;99.90;;;;;;4958370;28;20092;-75
2021/05/19 02:42:33;;;;;;;10.13;4.60;;;8.40;99.90;;;;;;4962429;28;20570;-75
2021/05/19 02:44:59;;;;;;;5.97;2.60;;;8.40;99.90;;;;;;4973924;28;20138;-75
2021/05/19 02:47:24;;;;;;;4.85;1.77;;;8.40;99.90;;;;;;4959838;28;20035;-75
2021/05/19 02:49:50;;;;;;;7.18;1.27;;;8.40;99.90;;;;;;4957261;28;20296;-75
2021/05/19 02:52:16;;;;;;;3.90;1.05;;;8.40;99.90;;;;;;4974486;28;20034;-75
2021/05/19 02:54:41;;;;;;;6.43;0.85;;;8.40;99.90;;;;;;4958544;28;20026;-75
2021/05/19 02:57:07;;;;;;;1.48;0.60;;;8.40;99.90;;;;;;4963551;28;20110;-76
2021/05/19 02:59:33;;;;;;;6.53;0.82;;;8.30;99.90;;;;;;4956661;28;20404;-75
2021/05/19 03:01:59;;;;;;;3.30;0.82;;;8.20;99.90;;;;;;4971198;28;20035;-75
2021/05/19 03:04:25;;;;;;;1.70;0.55;;;8.20;99.90;;;;;;4956515;28;20271;-75
2021/05/19 03:06:50;;;;;;;2.42;0.80;;;8.20;99.90;;;;;;4979164;28;20045;-75
2021/05/19 03:09:16;;;;;;;2.45;0.60;;;8.20;99.90;;;;;;4956927;28;20039;-76
2021/05/19 03:11:42;;;;;;;2.90;0.50;;;8.20;99.90;;;;;;4977115;28;20035;-75
2021/05/19 03:14:08;;;;;;;2.83;0.57;;;8.10;99.90;;;;;;4955924;28;20077;-75
2021/05/19 03:16:33;;;;;;;5.32;0.65;;;8.10;99.90;;;;;;4961610;28;20149;-75
2021/05/19 03:18:59;;;;;;;2.08;0.55;;;8.10;99.90;;;;;;4956965;28;20038;-75
2021/05/19 03:21:25;;;;;;;3.05;0.60;;;8.10;99.90;;;;;;4975268;28;20484;-75
2021/05/19 03:23:51;;;;;;;2.13;0.68;;;8.10;99.90;;;;;;4958263;28;20492;-75
2021/05/19 03:26:17;;;;;;;4.68;1.35;;;8.20;99.90;;;;;;4957075;28;20492;-75
2021/05/19 03:28:43;;;;;;;4.10;1.27;;;8.20;99.90;;;;;;4958432;28;20058;-75
2021/05/19 03:31:09;;;;;;;3.60;0.88;;;8.20;99.90;;;;;;4958549;28;20065;-75
2021/05/19 03:33:35;;;;;;;4.57;1.90;;;8.20;99.90;;;;;;4965302;28;20540;-75
2021/05/19 03:36:02;;;;;;;4.75;1.73;;;8.20;99.90;;;;;;4957024;28;20050;-75
2021/05/19 03:38:28;;;;;;;5.57;1.77;;;8.20;99.90;;;;;;4960036;28;20081;-75
2021/05/19 03:40:53;;;;;;;7.00;2.20;;;8.30;99.90;;;;;;4973409;28;20038;-75
2021/05/19 03:43:19;;;;;;;4.88;2.67;;;8.30;99.90;;;;;;4958861;28;20468;-75
2021/05/19 03:45:45;;;;;;;6.35;3.03;;;8.20;99.90;;;;;;4959226;28;20118;-75
2021/05/19 03:48:11;;;;;;;5.55;3.38;;;8.20;99.90;;;;;;4957256;28;20046;-76
2021/05/19 03:50:37;;;;;;;9.20;5.40;;;8.20;99.90;;;;;;4959771;28;20070;-75
2021/05/19 03:53:05;;;;;;;7.25;5.78;;;8.30;99.90;;;;;;4955780;28;20027;-76
2021/05/19 03:55:31;;;;;;;9.25;5.75;;;8.30;99.90;;;;;;4959722;28;20515;-75
2021/05/19 03:57:57;;;;;;;9.25;6.15;;;8.40;99.90;;;;;;4957366;28;20401;-75
2021/05/19 04:00:28;;;;;;;9.45;6.93;;;8.30;99.90;;;;;;4956589;28;20045;-75
2021/05/19 04:02:53;;;;;;;9.30;6.28;;;8.30;99.90;;;;;;4958520;28;20046;-75
2021/05/19 04:05:21;;;;;;;10.68;4.70;;;8.30;99.90;;;;;;4957369;28;20130;-75
2021/05/19 04:07:50;;;;;;;6.32;3.55;;;8.30;99.90;;;;;;4960169;28;20039;-75
2021/05/19 04:10:16;;;;;;;4.80;2.65;;;8.30;99.90;;;;;;4958778;28;20049;-75
2021/05/19 04:12:42;;;;;;;4.20;1.10;;;8.30;99.90;;;;;;4957972;28;20039;-75
2021/05/19 04:15:08;;;;;;;4.60;1.20;;;8.20;99.90;;;;;;4972285;28;20039;-75
2021/05/19 04:17:34;;;;;;;2.92;0.80;;;8.20;99.90;;;;;;4959615;28;20043;-75
2021/05/19 04:20:00;;;;;;;4.43;1.48;;;8.20;99.90;;;;;;4955268;28;20365;-75
2021/05/19 04:22:26;;;;;;;3.70;1.27;;;8.20;99.90;;;;;;4965827;28;20505;-75
2021/05/19 04:24:52;;;;;;;3.28;1.23;;;8.20;99.90;;;;;;4955388;28;20051;-76
2021/05/19 04:27:17;;;;;;;5.45;1.20;;;8.20;99.90;;;;;;4971776;28;20046;-75
2021/05/19 04:29:43;;;;;;;5.60;1.52;;;8.20;99.90;;;;;;4972142;28;20031;-75
2021/05/19 04:32:10;;;;;;;4.63;1.65;;;8.20;99.90;;;;;;4969572;28;20508;-75
2021/05/19 04:34:37;;;;;;;4.72;2.00;;;8.30;99.90;;;;;;4956945;28;20062;-75
2021/05/19 04:37:04;;;;;;;5.53;1.70;;;8.30;99.90;;;;;;4971755;28;20034;-76
2021/05/19 04:39:30;;;;;;;5.13;1.85;;;8.30;99.90;;;;;;4956434;28;20133;-75
2021/05/19 04:41:56;;;;;;;5.50;2.33;;;8.30;99.90;;;;;;4956521;28;20037;-75
2021/05/19 04:44:21;;;;;;;7.15;2.20;;;8.30;99.90;;;;;;4958374;28;20383;-75
2021/05/19 04:46:47;;;;;;;6.13;1.98;;;8.40;99.90;;;;;;4954722;28;20081;-75
2021/05/19 04:49:13;;;;;;;5.93;2.50;;;8.40;99.90;;;;;;4956989;28;20074;-76
2021/05/19 04:51:39;;;;;;;7.55;3.70;;;8.50;99.90;;;;;;4955616;28;20750;-75
2021/05/19 04:54:05;;;;;;;5.97;4.13;;;8.50;99.90;;;;;;4961692;28;20101;-75
2021/05/19 04:56:30;;;;;;;7.10;3.50;;;8.50;99.90;;;;;;4954345;28;20077;-74
2021/05/19 04:58:56;;;;;;;6.13;2.72;;;8.60;99.90;;;;;;4973984;28;20031;-75
2021/05/19 05:01:21;;;;;;;7.70;2.05;;;8.70;99.90;;;;;;4955813;28;20055;-75
2021/05/19 05:03:48;;;;;;;5.88;1.60;;;8.90;99.90;;;;;;4959783;28;20582;-75
2021/05/19 05:06:13;;;;;;;6.90;2.17;;;9.00;99.90;;;;;;4958920;28;20476;-75
2021/05/19 05:08:39;;;;;;;6.70;1.25;;;9.10;99.90;;;;;;4957728;28;20042;-75
2021/05/19 05:11:05;;;;;;;4.45;1.17;;;9.20;99.90;;;;;;4958199;28;20399;-75
2021/05/19 05:13:31;;;;;;;3.92;0.90;;;9.40;99.90;;;;;;4959528;28;20031;-75
2021/05/19 05:15:56;;;;;;;3.20;0.80;;;9.40;99.90;;;;;;4953780;28;20043;-75
2021/05/19 05:18:22;;;;;;;2.30;0.60;;;9.40;99.90;;;;;;4953084;28;20035;-75
2021/05/19 05:20:48;;;;;;;3.90;0.57;;;9.40;99.90;;;;;;4969905;28;20082;-75
2021/05/19 05:23:13;;;;;;;2.70;0.68;;;9.80;99.90;;;;;;4954833;28;20191;-75
2021/05/19 05:25:39;;;;;;;1.48;0.40;;;10.10;99.90;;;;;;4961594;28;20125;-76
2021/05/19 05:28:05;;;;;;;4.47;1.20;;;9.80;99.90;;;;;;4948852;28;20041;-75
2021/05/19 05:30:30;;;;;;;3.75;0.80;;;9.60;99.90;;;;;;4967679;28;20154;-75
2021/05/19 05:32:56;;;;;;;8.85;0.95;;;9.80;99.90;;;;;;4952033;28;20377;-76
2021/05/19 05:35:22;;;;;;;5.47;1.00;;;9.90;99.90;;;;;;4952617;28;20569;-75
2021/05/19 05:37:48;;;;;;;4.18;1.27;;;10.00;99.90;;;;;;4956604;28;20046;-75
2021/05/19 05:40:14;;;;;;;5.53;1.20;;;10.00;99.90;;;;;;4950433;28;20046;-75
2021/05/19 05:42:40;;;;;;;6.78;1.35;;;10.10;99.90;;;;;;4953582;28;20030;-75
2021/05/19 05:45:07;;;;;;;2.47;0.98;;;10.00;99.90;;;;;;4961966;28;20461;-75
2021/05/19 05:47:34;;;;;;;5.68;1.33;;;9.90;99.90;;;;;;4957392;28;20034;-75
2021/05/19 05:50:02;;;;;;;4.80;1.10;;;10.10;99.90;;;;;;4961441;28;20043;-75
2021/05/19 05:52:29;;;;;;;9.32;1.60;;;10.10;99.90;;;;;;4975708;28;20409;-75
2021/05/19 05:54:54;;;;;;;5.05;1.50;;;10.10;99.90;;;;;;4959630;28;20035;-75
2021/05/19 05:57:20;;;;;;;5.93;1.10;;;10.10;99.90;;;;;;4952305;28;20546;-75
2021/05/19 05:59:46;;;;;;;3.47;0.90;;;10.10;99.90;;;;;;4963394;28;20066;-75
2021/05/19 06:02:12;;;;;;;4.95;0.90;;;10.00;99.90;;;;;;4966789;28;20432;-76
2021/05/19 06:04:38;;;;;;;2.13;0.90;;;10.00;99.90;;;;;;4970048;28;20253;-75
2021/05/19 06:07:04;;;;;;;3.40;1.02;;;10.20;99.90;;;;;;4965122;28;20560;-75
2021/05/19 06:09:30;;;;;;;3.95;1.10;;;10.60;99.90;;;;;;4963247;28;20031;-75
2021/05/19 06:11:55;;;;;;;1.88;0.70;;;10.60;99.90;;;;;;4966250;28;20670;-75
2021/05/19 06:14:21;;;;;;;3.80;1.10;;;10.80;99.90;;;;;;4961667;28;20699;-75
2021/05/19 06:16:47;;;;;;;3.05;0.80;;;11.20;99.90;;;;;;4965431;28;20077;-75
2021/05/19 06:19:12;;;;;;;3.60;1.38;;;11.60;99.90;;;;;;4964929;28;20035;-75
2021/05/19 06:21:39;;;;;;;3.38;1.20;;;11.50;99.90;;;;;;4962947;28;20039;-75
2021/05/19 06:24:06;;;;;;;3.50;1.45;;;12.30;99.90;;;;;;4959710;28;20455;-75
2021/05/19 06:26:32;;;;;;;2.80;1.50;;;12.20;99.90;;;;;;4961825;28;20050;-75
2021/05/19 06:28:58;;;;;;;4.93;1.40;;;12.40;99.90;;;;;;4966661;28;20050;-75
2021/05/19 06:31:23;;;;;;;4.30;1.20;;;12.60;99.90;;;;;;4965562;28;20476;-75
2021/05/19 06:33:49;;;;;;;3.05;1.00;;;12.70;99.90;;;;;;4964608;28;20031;-75
2021/05/19 06:36:15;;;;;;;5.32;1.30;;;12.90;99.90;;;;;;4963161;28;20073;-75
2021/05/19 06:38:40;;;;;;;3.80;0.90;;;12.60;99.90;;;;;;4965861;28;20056;-76
2021/05/19 06:41:06;;;;;;;3.20;1.00;;;12.60;99.90;;;;;;4957541;28;20038;-76
2021/05/19 06:43:32;;;;;;;5.05;0.85;;;12.50;99.90;;;;;;4977806;28;20037;-76
2021/05/19 06:45:57;;;;;;;5.03;0.98;;;12.30;99.90;;;;;;4980196;28;20134;-75
2021/05/19 06:48:23;;;;;;;4.90;0.70;;;12.70;99.90;;;;;;4966463;28;20045;-75
2021/05/19 06:50:49;;;;;;;2.03;0.50;;;12.60;99.90;;;;;;4964093;28;20041;-76
2021/05/19 06:53:15;;;;;;;2.65;0.70;;;12.40;99.90;;;;;;4960133;28;20031;-75
2021/05/19 06:55:47;;;;;;;1.88;0.52;;;12.50;99.90;;;;;;4962511;28;20026;-76
2021/05/19 06:58:13;;;;;;;3.35;0.90;;;12.80;99.90;;;;;;4960338;28;20042;-75
2021/05/19 07:00:39;;;;;;;2.83;0.90;;;13.30;99.90;;;;;;4954710;28;20142;-75
2021/05/19 07:03:05;;;;;;;2.22;0.80;;;13.50;99.90;;;;;;4967043;28;20034;-75
2021/05/19 07:05:31;;;;;;;1.35;0.40;;;13.60;99.90;;;;;;4968699;28;20042;-77
2021/05/19 07:07:56;;;;;;;7.85;0.43;;;13.60;99.90;;;;;;4969996;28;20769;-75
2021/05/19 07:10:23;;;;;;;2.22;0.50;;;13.60;99.90;;;;;;4967652;28;20511;-75
2021/05/19 07:12:50;;;;;;;1.95;0.52;;;14.00;99.90;;;;;;4974993;28;20035;-75
2021/05/19 07:15:17;;;;;;;2.13;0.50;;;13.70;99.90;;;;;;4974659;28;20046;-75
2021/05/19 07:17:43;;;;;;;2.80;0.80;;;14.20;99.90;;;;;;5008929;23;20154;-75
2021/05/19 07:20:11;;;;;;;4.50;0.80;;;14.10;99.90;;;;;;4976236;28;20109;-75
2021/05/19 07:22:40;;;;;;;1.20;0.47;;;14.20;99.90;;;;;;4970715;28;20650;-75
2021/05/19 07:25:07;;;;;;;3.88;0.70;;;14.10;99.90;;;;;;4978621;28;20033;-74
2021/05/19 07:27:33;;;;;;;2.17;0.70;;;13.50;99.90;;;;;;4982399;28;20067;-75
2021/05/19 07:30:00;;;;;;;5.47;0.70;;;14.20;99.90;;;;;;4971683;28;20025;-75
2021/05/19 07:32:25;;;;;;;3.72;0.68;;;14.40;99.90;;;;;;4970371;28;20042;-75
2021/05/19 07:34:51;;;;;;;2.13;0.52;;;14.10;99.90;;;;;;4987181;28;20027;-75
2021/05/19 07:37:17;;;;;;;3.55;0.80;;;14.10;99.90;;;;;;4972641;28;20121;-75
2021/05/19 07:39:43;;;;;;;1.85;0.38;;;13.70;99.90;;;;;;4970402;28;20042;-77
2021/05/19 07:42:08;;;;;;;3.88;0.50;;;14.00;99.90;;;;;;4966431;28;20126;-76
2021/05/19 07:44:34;;;;;;;1.50;0.55;;;14.30;99.90;;;;;;4965210;28;20038;-76
2021/05/19 07:47:00;;;;;;;2.53;0.68;;;14.90;99.90;;;;;;4961724;28;20490;-76
2021/05/19 07:49:25;;;;;;;3.35;0.50;;;15.40;99.90;;;;;;4958102;28;20027;-76
2021/05/19 07:51:51;;;;;;;1.92;0.50;;;15.20;99.90;;;;;;4974170;28;20305;-75
2021/05/19 07:54:28;;;;;;;9.57;0.77;;;15.30;99.90;;;;;;4970136;28;20023;-75
2021/05/19 07:57:01;;;;;;;2.08;0.60;;;15.80;99.90;;;;;;4971270;28;20081;-76
2021/05/19 07:59:29;;;;;;;3.60;0.60;;;15.30;99.90;;;;;;4962786;28;20027;-76
2021/05/19 08:02:02;;;;;;;4.90;0.60;;;15.40;99.90;;;;;;4958566;28;20594;-75
2021/05/19 08:04:30;;;;;;;2.50;0.40;;;15.80;99.90;;;;;;4955924;28;20026;-76
2021/05/19 08:06:56;;;;;;;2.92;1.08;;;14.90;99.90;;;;;;4957098;28;20043;-76
2021/05/19 08:09:22;;;;;;;2.95;0.40;;;15.00;99.90;;;;;;4968526;28;20031;-75
2021/05/19 08:11:48;;;;;;;2.58;0.50;;;14.90;99.90;;;;;;4956880;28;20035;-75
2021/05/19 08:14:15;;;;;;;2.85;0.63;;;15.20;99.90;;;;;;4970896;28;20369;-76
2021/05/19 08:16:41;;;;;;;1.98;0.50;;;15.70;99.90;;;;;;4955737;28;20503;-76
2021/05/19 08:19:06;;;;;;;2.58;0.40;;;15.30;99.90;;;;;;4965281;28;20201;-76
2021/05/19 08:21:32;;;;;;;4.13;0.40;;;15.50;99.90;;;;;;4961457;28;20548;-75
2021/05/19 08:23:58;;;;;;;2.42;0.60;;;15.40;99.90;;;;;;4955125;28;20027;-76
2021/05/19 08:26:23;;;;;;;1.75;0.40;;;15.90;99.90;;;;;;4951881;28;20046;-76
2021/05/19 08:28:49;;;;;;;2.15;0.50;;;16.10;99.90;;;;;;4951541;28;20495;-76
2021/05/19 08:31:18;;;;;;;3.58;0.40;;;16.00;99.90;;;;;;4959854;28;20358;-76
2021/05/19 08:33:45;;;;;;;4.90;0.50;;;15.90;99.90;;;;;;4956100;28;20609;-76
2021/05/19 08:36:11;;;;;;;1.55;0.40;;;15.80;99.90;;;;;;4950469;28;20030;-76
2021/05/19 08:38:38;;;;;;;2.40;0.50;;;15.30;99.90;;;;;;4964346;28;20035;-76
2021/05/19 08:41:05;;;;;;;3.15;0.63;;;15.00;99.90;;;;;;4952831;28;20085;-76
2021/05/19 08:43:31;;;;;;;1.67;0.60;;;15.20;99.90;;;;;;4951204;28;20031;-76
2021/05/19 08:45:58;;;;;;;3.15;0.65;;;15.20;99.90;;;;;;4947678;28;20027;-76
2021/05/19 08:48:24;;;;;;;4.00;0.50;;;15.00;99.90;;;;;;4969278;28;20058;-76
2021/05/19 08:50:51;;;;;;;6.00;0.63;;;14.50;99.90;;;;;;4961236;28;20114;-75
2021/05/19 08:53:16;;;;;;;1.98;0.40;;;14.60;99.90;;;;;;4959952;28;20084;-75
2021/05/19 08:55:42;;;;;;;2.72;0.50;;;14.90;99.90;;;;;;4953016;28;20034;-76
2021/05/19 08:58:08;;;;;;;3.53;1.02;;;14.80;99.90;;;;;;4957433;28;20039;-75
2021/05/19 09:00:34;;;;;;;2.15;0.50;;;15.00;99.90;;;;;;4977333;28;20061;-76
2021/05/19 09:03:32;;;;;;;3.83;0.60;;;15.10;99.90;;;;;;4960285;28;20039;-76
2021/05/19 09:05:58;;;;;;;6.70;0.80;;;14.70;99.90;;;;;;4949168;28;20056;-75
2021/05/19 09:08:23;;;;;;;3.70;0.70;;;14.50;99.90;;;;;;4961872;28;20035;-76
2021/05/19 09:11:00;;;;;;;2.88;0.40;;;14.10;99.90;;;;;;4970159;28;20142;-76
2021/05/19 09:13:33;;;;;;;5.20;0.88;;;14.30;99.90;;;;;;4981789;28;20388;-76
2021/05/19 09:16:00;;;;;;;2.88;0.60;;;14.00;99.90;;;;;;4968482;28;20037;-75
2021/05/19 09:18:51;;;;;;;2.30;0.40;;;14.40;99.90;;;;;;4970019;28;20054;-76
2021/05/19 09:21:42;;;;;;;3.25;0.80;;;14.20;99.90;;;;;;4985095;28;20034;-76
2021/05/19 09:24:20;;;;;;;3.15;0.40;;;13.90;99.90;;;;;;4964246;28;20031;-76
2021/05/19 09:26:56;;;;;;;2.67;0.50;;;14.20;99.90;;;;;;4967053;28;20817;-75
2021/05/19 09:29:23;;;;;;;3.90;0.40;;;14.40;99.90;;;;;;4967998;28;20034;-75
2021/05/19 09:31:51;;;;;;;2.35;0.43;;;14.00;99.90;;;;;;4975372;28;20035;-75
2021/05/19 09:34:39;;;;;;;2.15;0.35;;;14.60;99.90;;;;;;4955514;28;20488;-76
2021/05/19 09:37:25;;;;;;;2.15;0.40;;;14.90;99.90;;;;;;4961236;28;20066;-76
2021/05/19 09:39:50;;;;;;;3.08;0.50;;;15.20;99.90;;;;;;4964879;28;20348;-75
2021/05/19 09:42:23;;;;;;;2.78;0.50;;;14.20;99.90;;;;;;4959031;28;20077;-76
2021/05/19 09:44:49;;;;;;;2.40;0.70;;;14.50;99.90;;;;;;4957668;28;20031;-75
2021/05/19 09:47:36;;;;;;;4.50;0.90;;;14.30;99.90;;;;;;4960602;28;20054;-75
2021/05/19 09:50:03;;;;;;;3.05;0.75;;;14.10;99.90;;;;;;4955692;28;20030;-75
2021/05/19 09:52:29;;;;;;;3.15;0.90;;;14.30;99.90;;;;;;4974100;28;20440;-76
2021/05/19 09:55:03;;;;;;;2.17;0.50;;;14.20;99.90;;;;;;4963250;28;20111;-75
2021/05/19 09:57:40;;;;;;;4.35;0.70;;;13.90;99.90;;;;;;4975793;28;20212;-75
2021/05/19 10:00:07;;;;;;;3.08;0.40;;;13.60;99.90;;;;;;4961081;28;20034;-75
2021/05/19 10:02:34;;;;;;;4.68;0.47;;;13.90;99.90;;;;;;4963636;28;20047;-75
2021/05/19 10:05:07;;;;;;;5.65;0.80;;;14.10;99.90;;;;;;4962278;28;20022;-76
2021/05/19 10:07:33;;;;;;;1.98;0.40;;;13.60;99.90;;;;;;4963026;28;20085;-75
2021/05/19 10:09:59;;;;;;;4.45;0.43;;;13.30;99.90;;;;;;4960367;28;20065;-76
2021/05/19 10:12:24;;;;;;;2.85;0.57;;;13.10;99.90;;;;;;4957632;28;20066;-75
2021/05/19 10:14:51;;;;;;;1.85;0.40;;;13.00;99.90;;;;;;4963522;28;20030;-75
2021/05/19 10:17:19;;;;;;;2.70;0.63;;;12.80;99.90;;;;;;4959775;28;20051;-75
2021/05/19 10:19:53;;;;;;;6.13;0.63;;;12.80;99.90;;;;;;4959461;28;20038;-75
2021/05/19 10:22:21;;;;;;;4.32;0.40;;;12.30;99.90;;;;;;4959626;28;20076;-75
2021/05/19 10:27:47;;;;;;;2.60;0.50;;;12.10;99.90;;;;;;4962379;28;20460;-75
2021/05/19 10:30:30;;;;;;;3.45;0.80;;;11.90;99.90;;;;;;4959832;28;20058;-76
2021/05/19 10:32:56;;;;;;;2.90;0.50;;;11.70;99.90;;;;;;4976090;28;20034;-76
2021/05/19 10:35:33;;;;;;;3.78;0.80;;;11.60;99.90;;;;;;4976160;28;20035;-75
2021/05/19 10:38:20;;;;;;;3.55;0.88;;;11.60;99.90;;;;;;4962106;28;20384;-75
2021/05/19 10:40:57;;;;;;;8.25;1.20;;;11.50;99.90;;;;;;4959076;28;20045;-75
2021/05/19 10:43:54;;;;;;;4.78;0.85;;;11.40;99.90;;;;;;4961157;28;20044;-75
2021/05/19 10:46:54;;;;;;;8.55;1.50;;;11.20;99.90;;;;;;4961869;28;20042;-74
2021/05/19 10:49:21;;;;;;;4.75;0.50;;;11.30;99.90;;;;;;4975474;28;20035;-75
2021/05/19 10:52:14;;;;;;;4.30;0.60;;;11.00;99.90;;;;;;4974000;28;20126;-76
2021/05/19 10:57:45;;;;;;;4.18;0.73;;;10.90;99.90;;;;;;4964403;28;20097;-75
2021/05/19 11:00:13;;;;;;;3.42;0.60;;;10.90;99.90;;;;;;4968077;28;20054;-75
2021/05/19 11:03:01;;;;;;;2.00;0.43;;;10.90;99.90;;;;;;4961906;28;20034;-75
2021/05/19 11:05:34;;;;;;;4.40;0.65;;;10.80;99.90;;;;;;4973687;28;20103;-75
2021/05/19 11:08:06;;;;;;;3.85;0.75;;;10.80;99.90;;;;;;4961111;28;20122;-75
2021/05/19 11:10:33;;;;;;;1.85;0.40;;;11.00;99.90;;;;;;4962550;28;20027;-75
2021/05/19 11:12:59;;;;;;;3.28;0.50;;;11.10;99.90;;;;;;4963723;28;20038;-75
2021/05/19 11:18:19;;;;;;;4.45;0.80;;;11.30;99.90;;;;;;4963128;28;20058;-75
2021/05/19 11:20:46;;;;;;;4.57;0.70;;;11.40;99.90;;;;;;4965192;28;20550;-75
2021/05/19 11:23:13;;;;;;;5.93;1.38;;;11.40;99.90;;;;;;4978078;28;20156;-75
2021/05/19 11:25:39;;;;;;;5.93;2.28;;;11.50;99.90;;;;;;4964139;28;20396;-76
2021/05/19 11:28:04;;;;;;;6.22;1.30;;;11.40;99.90;;;;;;4977416;28;20039;-75
2021/05/19 11:30:30;;;;;;;5.63;1.65;;;11.30;99.90;;;;;;4964128;28;20031;-75
2021/05/19 11:33:11;;;;;;;8.32;3.10;;;11.40;99.90;;;;;;4966184;28;20555;-75
2021/05/19 11:35:38;;;;;;;8.27;2.78;;;11.50;99.90;;;;;;4976552;28;20034;-75
2021/05/19 11:38:06;;;;;;;3.78;0.70;;;11.60;99.90;;;;;;4962869;28;20385;-75
2021/05/19 11:40:45;;;;;;;4.75;0.98;;;11.20;99.90;;;;;;4978686;28;20039;-75
2021/05/19 11:43:15;;;;;;;3.10;0.60;;;11.30;99.90;;;;;;4962275;28;20034;-76
2021/05/19 11:45:44;;;;;;;2.13;0.65;;;11.10;99.90;;;;;;4964376;28;20085;-75
2021/05/19 11:48:28;;;;;;;3.92;0.95;;;11.10;99.90;;;;;;4964190;28;20042;-75
2021/05/19 11:50:55;;;;;;;3.10;0.50;;;11.30;99.90;;;;;;4971295;28;20030;-75
2021/05/19 11:53:22;;;;;;;1.75;0.30;;;11.40;99.90;;;;;;4963419;28;20027;-75
2021/05/19 11:55:52;;;;;;;3.08;0.60;;;11.30;99.90;;;;;;4978236;28;20045;-75
2021/05/19 11:58:32;;;;;;;3.90;0.60;;;11.50;99.90;;;;;;4958740;28;20039;-75
2021/05/19 12:01:10;;;;;;;4.30;0.50;;;11.90;99.90;;;;;;4961683;28;20039;-75
2021/05/19 12:03:38;;;;;;;3.15;0.32;;;12.10;99.90;;;;;;4960615;28;20070;-75
2021/05/19 12:06:11;;;;;;;1.77;0.30;;;12.30;99.90;;;;;;4961763;28;20042;-75
2021/05/19 12:08:48;;;;;;;2.35;0.25;;;12.20;99.90;;;;;;4962211;28;20492;-75
2021/05/19 12:11:21;;;;;;;2.05;0.68;;;12.20;99.90;;;;;;4959063;28;20055;-76
2021/05/19 12:13:56;;;;;;;1.02;0.30;;;12.50;99.90;;;;;;4962325;28;20035;-75
2021/05/19 12:16:29;;;;;;;0.95;0.40;;;12.40;99.90;;;;;;4958319;28;20580;-76
2021/05/19 12:19:08;;;;;;;1.67;0.40;;;12.60;99.90;;;;;;4959474;28;20050;-75
2021/05/19 12:21:41;;;;;;;3.05;0.50;;;12.90;99.90;;;;;;4962508;28;20081;-75
2021/05/19 12:24:08;;;;;;;2.92;0.40;;;13.10;99.90;;;;;;4959697;28;20038;-76
2021/05/19 12:26:36;;;;;;;2.50;0.38;;;13.30;99.90;;;;;;4960775;28;20081;-75
2021/05/19 12:29:04;;;;;;;1.75;0.40;;;13.50;99.90;;;;;;4977529;28;20045;-75
2021/05/19 12:31:32;;;;;;;2.45;0.40;;;13.70;99.90;;;;;;4958053;28;20058;-75
2021/05/19 12:33:58;;;;;;;5.60;0.57;;;13.40;99.90;;;;;;4957673;28;20031;-75
2021/05/19 12:36:32;;;;;;;1.90;0.40;;;13.30;99.90;;;;;;4970846;28;20370;-75
2021/05/19 12:39:04;;;;;;;2.50;0.30;;;13.30;99.90;;;;;;4961320;28;20057;-76
2021/05/19 12:41:42;;;;;;;2.92;0.40;;;13.00;99.90;;;;;;4970734;28;20096;-75
2021/05/19 12:44:13;;;;;;;2.22;0.40;;;12.90;99.90;;;;;;4961116;28;20086;-74
2021/05/19 12:46:39;;;;;;;3.05;0.40;;;13.10;99.90;;;;;;4971717;28;20038;-75
2021/05/19 12:49:12;;;;;;;2.00;0.32;;;13.00;99.90;;;;;;4960585;28;20046;-76
2021/05/19 12:51:48;;;;;;;3.78;0.50;;;13.10;99.90;;;;;;4972415;28;20031;-77
2021/05/19 12:54:20;;;;;;;3.63;0.52;;;13.20;99.90;;;;;;4953667;28;20031;-76
2021/05/19 12:56:57;;;;;;;3.70;0.40;;;13.20;99.90;;;;;;4956230;28;20045;-77
2021/05/19 12:59:22;;;;;;;3.15;0.40;;;13.40;99.90;;;;;;4962632;28;20031;-77
2021/05/19 13:01:48;;;;;;;2.03;0.40;;;13.30;99.90;;;;;;4957883;28;20484;-77
2021/05/19 13:04:16;;;;;;;4.20;0.50;;;13.40;99.90;;;;;;4959373;28;20038;-77
2021/05/19 13:06:42;;;;;;;5.32;0.40;;;13.50;99.90;;;;;;4953955;28;20496;-76
2021/05/19 13:09:13;;;;;;;4.75;0.68;;;13.50;99.90;;;;;;4971290;28;20385;-77